sensor_id;sensor_type;location;lat;lon;timestamp;P1;durP1;ratioP1;P2;durP2;ratioP2
2850;SDS011;1433;49.976;8.342;2023-06-14T00:05:15;5.07;;;3.87;;
2850;SDS011;1433;49.976;8.342;2023-06-14T00:14:29;5.97;;;4.47;;
2850;SDS011;1433;49.976;8.342;2023-06-14T00:17:41;4.10;;;3.70;;
2850;SDS011;1433;49.976;8.342;2023-06-14T00:20:24;5.17;;;3.90;;
2850;SDS011;1433;49.976;8.342;2023-06-14T00:25:40;5.33;;;4.83;;
2850;SDS011;1433;49.976;8.342;2023-06-14T00:28:25;9.20;;;3.50;;
2850;SDS011;1433;49.976;8.342;2023-06-14T00:31:14;4.73;;;3.97;;
2850;SDS011;1433;49.976;8.342;2023-06-14T00:36:51;4.30;;;3.97;;
2850;SDS011;1433;49.976;8.342;2023-06-14T00:39:36;4.53;;;4.20;;
2850;SDS011;1433;49.976;8.342;2023-06-14T00:42:04;4.53;;;4.17;;
2850;SDS011;1433;49.976;8.342;2023-06-14T00:44:32;4.80;;;3.80;;
2850;SDS011;1433;49.976;8.342;2023-06-14T00:46:58;3.70;;;3.40;;
2850;SDS011;1433;49.976;8.342;2023-06-14T00:49:24;4.77;;;4.40;;
2850;SDS011;1433;49.976;8.342;2023-06-14T00:51:50;4.07;;;3.40;;
2850;SDS011;1433;49.976;8.342;2023-06-14T00:54:18;5.20;;;4.30;;
2850;SDS011;1433;49.976;8.342;2023-06-14T00:56:45;5.20;;;4.53;;
2850;SDS011;1433;49.976;8.342;2023-06-14T00:59:11;5.60;;;5.10;;
2850;SDS011;1433;49.976;8.342;2023-06-14T01:01:38;4.40;;;4.00;;
2850;SDS011;1433;49.976;8.342;2023-06-14T01:04:06;4.07;;;3.70;;
2850;SDS011;1433;49.976;8.342;2023-06-14T01:06:45;8.20;;;4.93;;
2850;SDS011;1433;49.976;8.342;2023-06-14T01:09:27;4.40;;;4.00;;
2850;SDS011;1433;49.976;8.342;2023-06-14T01:12:13;3.80;;;3.50;;
2850;SDS011;1433;49.976;8.342;2023-06-14T01:14:34;5.37;;;4.73;;
2850;SDS011;1433;49.976;8.342;2023-06-14T01:17:01;4.37;;;3.97;;
2850;SDS011;1433;49.976;8.342;2023-06-14T01:19:28;4.70;;;3.90;;
2850;SDS011;1433;49.976;8.342;2023-06-14T01:21:55;5.80;;;4.30;;
2850;SDS011;1433;49.976;8.342;2023-06-14T01:24:22;4.30;;;3.90;;
2850;SDS011;1433;49.976;8.342;2023-06-14T01:26:53;5.50;;;4.83;;
2850;SDS011;1433;49.976;8.342;2023-06-14T01:29:22;6.30;;;4.43;;
2850;SDS011;1433;49.976;8.342;2023-06-14T01:31:51;3.83;;;3.50;;
2850;SDS011;1433;49.976;8.342;2023-06-14T01:34:19;4.50;;;4.07;;
2850;SDS011;1433;49.976;8.342;2023-06-14T01:36:48;4.00;;;3.60;;
2850;SDS011;1433;49.976;8.342;2023-06-14T01:39:16;3.80;;;3.50;;
2850;SDS011;1433;49.976;8.342;2023-06-14T01:41:43;4.53;;;3.90;;
2850;SDS011;1433;49.976;8.342;2023-06-14T01:44:12;6.57;;;3.40;;
2850;SDS011;1433;49.976;8.342;2023-06-14T01:46:40;5.20;;;4.80;;
2850;SDS011;1433;49.976;8.342;2023-06-14T01:49:08;4.67;;;4.10;;
2850;SDS011;1433;49.976;8.342;2023-06-14T01:51:34;4.50;;;4.20;;
2850;SDS011;1433;49.976;8.342;2023-06-14T01:54:03;4.33;;;3.97;;
2850;SDS011;1433;49.976;8.342;2023-06-14T01:56:33;4.53;;;4.10;;
2850;SDS011;1433;49.976;8.342;2023-06-14T01:58:59;3.93;;;3.63;;
2850;SDS011;1433;49.976;8.342;2023-06-14T02:01:25;4.50;;;3.60;;
2850;SDS011;1433;49.976;8.342;2023-06-14T02:03:52;4.83;;;4.20;;
2850;SDS011;1433;49.976;8.342;2023-06-14T02:06:19;5.10;;;3.90;;
2850;SDS011;1433;49.976;8.342;2023-06-14T02:08:45;4.20;;;3.80;;
2850;SDS011;1433;49.976;8.342;2023-06-14T02:11:11;4.67;;;4.20;;
2850;SDS011;1433;49.976;8.342;2023-06-14T02:13:38;6.90;;;3.43;;
2850;SDS011;1433;49.976;8.342;2023-06-14T02:16:05;4.30;;;3.83;;
2850;SDS011;1433;49.976;8.342;2023-06-14T02:18:31;3.60;;;3.30;;
2850;SDS011;1433;49.976;8.342;2023-06-14T02:20:57;4.70;;;4.30;;
2850;SDS011;1433;49.976;8.342;2023-06-14T02:23:24;4.27;;;3.97;;
2850;SDS011;1433;49.976;8.342;2023-06-14T02:25:50;3.30;;;3.10;;
2850;SDS011;1433;49.976;8.342;2023-06-14T02:28:16;4.47;;;3.37;;
2850;SDS011;1433;49.976;8.342;2023-06-14T02:30:43;3.27;;;2.90;;
2850;SDS011;1433;49.976;8.342;2023-06-14T02:33:09;3.73;;;3.43;;
2850;SDS011;1433;49.976;8.342;2023-06-14T02:35:39;4.17;;;3.50;;
2850;SDS011;1433;49.976;8.342;2023-06-14T02:38:05;4.00;;;3.70;;
2850;SDS011;1433;49.976;8.342;2023-06-14T02:40:31;7.77;;;4.47;;
2850;SDS011;1433;49.976;8.342;2023-06-14T02:42:57;3.37;;;3.17;;
2850;SDS011;1433;49.976;8.342;2023-06-14T02:45:24;3.60;;;3.40;;
2850;SDS011;1433;49.976;8.342;2023-06-14T02:47:50;4.27;;;3.60;;
2850;SDS011;1433;49.976;8.342;2023-06-14T02:50:17;3.60;;;3.27;;
2850;SDS011;1433;49.976;8.342;2023-06-14T02:52:43;3.77;;;3.47;;
2850;SDS011;1433;49.976;8.342;2023-06-14T02:55:11;4.50;;;3.80;;
2850;SDS011;1433;49.976;8.342;2023-06-14T02:57:37;3.60;;;3.10;;
2850;SDS011;1433;49.976;8.342;2023-06-14T03:00:04;3.97;;;3.57;;
2850;SDS011;1433;49.976;8.342;2023-06-14T03:02:36;5.83;;;3.73;;
2850;SDS011;1433;49.976;8.342;2023-06-14T03:05:03;5.10;;;4.00;;
2850;SDS011;1433;49.976;8.342;2023-06-14T03:07:30;4.20;;;3.83;;
2850;SDS011;1433;49.976;8.342;2023-06-14T03:09:57;4.43;;;4.03;;
2850;SDS011;1433;49.976;8.342;2023-06-14T03:12:23;4.63;;;3.57;;
2850;SDS011;1433;49.976;8.342;2023-06-14T03:14:50;4.80;;;4.40;;
2850;SDS011;1433;49.976;8.342;2023-06-14T03:17:18;3.63;;;3.33;;
2850;SDS011;1433;49.976;8.342;2023-06-14T03:19:45;5.50;;;5.00;;
2850;SDS011;1433;49.976;8.342;2023-06-14T03:22:12;3.60;;;3.30;;
2850;SDS011;1433;49.976;8.342;2023-06-14T03:24:39;3.10;;;2.80;;
2850;SDS011;1433;49.976;8.342;2023-06-14T03:27:08;4.73;;;4.17;;
2850;SDS011;1433;49.976;8.342;2023-06-14T03:29:36;3.50;;;3.20;;
2850;SDS011;1433;49.976;8.342;2023-06-14T03:32:03;4.80;;;3.93;;
2850;SDS011;1433;49.976;8.342;2023-06-14T03:34:34;5.93;;;3.83;;
2850;SDS011;1433;49.976;8.342;2023-06-14T03:37:01;4.73;;;3.17;;
2850;SDS011;1433;49.976;8.342;2023-06-14T03:39:28;5.77;;;4.37;;
2850;SDS011;1433;49.976;8.342;2023-06-14T03:41:55;6.87;;;3.80;;
2850;SDS011;1433;49.976;8.342;2023-06-14T03:44:21;3.63;;;3.20;;
2850;SDS011;1433;49.976;8.342;2023-06-14T03:46:48;4.40;;;4.00;;
2850;SDS011;1433;49.976;8.342;2023-06-14T03:49:14;3.70;;;3.40;;
2850;SDS011;1433;49.976;8.342;2023-06-14T03:51:43;5.53;;;4.00;;
2850;SDS011;1433;49.976;8.342;2023-06-14T03:54:11;4.17;;;3.87;;
2850;SDS011;1433;49.976;8.342;2023-06-14T03:56:38;7.87;;;3.77;;
2850;SDS011;1433;49.976;8.342;2023-06-14T03:59:05;4.33;;;3.70;;
2850;SDS011;1433;49.976;8.342;2023-06-14T04:01:32;3.90;;;3.60;;
2850;SDS011;1433;49.976;8.342;2023-06-14T04:03:59;2.90;;;2.73;;
2850;SDS011;1433;49.976;8.342;2023-06-14T04:06:26;4.53;;;4.10;;
2850;SDS011;1433;49.976;8.342;2023-06-14T04:08:54;4.83;;;3.57;;
2850;SDS011;1433;49.976;8.342;2023-06-14T04:11:20;3.80;;;3.20;;
2850;SDS011;1433;49.976;8.342;2023-06-14T04:13:46;3.83;;;3.30;;
2850;SDS011;1433;49.976;8.342;2023-06-14T04:16:14;4.23;;;3.93;;
2850;SDS011;1433;49.976;8.342;2023-06-14T04:18:42;3.83;;;3.53;;
2850;SDS011;1433;49.976;8.342;2023-06-14T04:21:09;6.43;;;3.67;;
2850;SDS011;1433;49.976;8.342;2023-06-14T04:23:35;5.40;;;2.80;;
2850;SDS011;1433;49.976;8.342;2023-06-14T04:26:01;6.23;;;3.40;;
2850;SDS011;1433;49.976;8.342;2023-06-14T04:28:28;4.50;;;3.70;;
2850;SDS011;1433;49.976;8.342;2023-06-14T04:30:56;3.73;;;3.20;;
2850;SDS011;1433;49.976;8.342;2023-06-14T04:33:25;3.63;;;3.33;;
2850;SDS011;1433;49.976;8.342;2023-06-14T04:35:52;4.40;;;4.00;;
2850;SDS011;1433;49.976;8.342;2023-06-14T04:38:20;3.53;;;3.23;;
2850;SDS011;1433;49.976;8.342;2023-06-14T04:40:52;3.50;;;3.20;;
2850;SDS011;1433;49.976;8.342;2023-06-14T04:43:20;36.50;;;3.97;;
2850;SDS011;1433;49.976;8.342;2023-06-14T04:45:50;3.83;;;3.23;;
2850;SDS011;1433;49.976;8.342;2023-06-14T04:48:18;3.97;;;3.00;;
2850;SDS011;1433;49.976;8.342;2023-06-14T04:50:48;4.40;;;3.10;;
2850;SDS011;1433;49.976;8.342;2023-06-14T04:53:16;3.20;;;2.90;;
2850;SDS011;1433;49.976;8.342;2023-06-14T04:55:45;4.80;;;3.77;;
2850;SDS011;1433;49.976;8.342;2023-06-14T04:58:12;4.30;;;3.70;;
2850;SDS011;1433;49.976;8.342;2023-06-14T05:00:39;6.77;;;3.37;;
2850;SDS011;1433;49.976;8.342;2023-06-14T05:03:08;4.73;;;3.07;;
2850;SDS011;1433;49.976;8.342;2023-06-14T05:05:34;4.60;;;4.20;;
2850;SDS011;1433;49.976;8.342;2023-06-14T05:08:00;4.83;;;4.17;;
2850;SDS011;1433;49.976;8.342;2023-06-14T05:10:27;6.40;;;3.70;;
2850;SDS011;1433;49.976;8.342;2023-06-14T05:12:54;5.27;;;4.20;;
2850;SDS011;1433;49.976;8.342;2023-06-14T05:15:21;5.60;;;3.07;;
2850;SDS011;1433;49.976;8.342;2023-06-14T05:17:49;6.63;;;4.30;;
2850;SDS011;1433;49.976;8.342;2023-06-14T05:20:18;6.57;;;3.43;;
2850;SDS011;1433;49.976;8.342;2023-06-14T05:22:44;4.47;;;3.80;;
2850;SDS011;1433;49.976;8.342;2023-06-14T05:25:10;3.60;;;3.00;;
2850;SDS011;1433;49.976;8.342;2023-06-14T05:27:37;4.10;;;3.80;;
2850;SDS011;1433;49.976;8.342;2023-06-14T05:30:05;9.73;;;3.57;;
2850;SDS011;1433;49.976;8.342;2023-06-14T05:32:35;3.53;;;3.23;;
2850;SDS011;1433;49.976;8.342;2023-06-14T05:35:01;3.47;;;3.00;;
2850;SDS011;1433;49.976;8.342;2023-06-14T05:37:28;4.30;;;3.90;;
2850;SDS011;1433;49.976;8.342;2023-06-14T05:39:54;4.77;;;3.57;;
2850;SDS011;1433;49.976;8.342;2023-06-14T05:42:20;5.73;;;3.90;;
2850;SDS011;1433;49.976;8.342;2023-06-14T05:44:47;4.40;;;4.00;;
2850;SDS011;1433;49.976;8.342;2023-06-14T05:47:15;3.20;;;2.90;;
2850;SDS011;1433;49.976;8.342;2023-06-14T05:49:42;4.17;;;3.17;;
2850;SDS011;1433;49.976;8.342;2023-06-14T05:52:08;3.40;;;3.10;;
2850;SDS011;1433;49.976;8.342;2023-06-14T05:54:34;3.30;;;3.10;;
2850;SDS011;1433;49.976;8.342;2023-06-14T05:57:01;3.60;;;3.27;;
2850;SDS011;1433;49.976;8.342;2023-06-14T05:59:27;3.97;;;3.67;;
2850;SDS011;1433;49.976;8.342;2023-06-14T06:01:54;3.80;;;3.50;;
2850;SDS011;1433;49.976;8.342;2023-06-14T06:04:20;3.50;;;2.90;;
2850;SDS011;1433;49.976;8.342;2023-06-14T06:06:54;4.50;;;3.37;;
2850;SDS011;1433;49.976;8.342;2023-06-14T06:09:20;3.00;;;2.80;;
2850;SDS011;1433;49.976;8.342;2023-06-14T06:11:46;2.97;;;2.77;;
2850;SDS011;1433;49.976;8.342;2023-06-14T06:14:12;4.00;;;3.60;;
2850;SDS011;1433;49.976;8.342;2023-06-14T06:16:38;3.47;;;3.27;;
2850;SDS011;1433;49.976;8.342;2023-06-14T06:19:05;4.40;;;2.58;;
2850;SDS011;1433;49.976;8.342;2023-06-14T06:21:31;3.33;;;3.00;;
2850;SDS011;1433;49.976;8.342;2023-06-14T06:24:05;5.63;;;2.20;;
2850;SDS011;1433;49.976;8.342;2023-06-14T06:26:32;3.50;;;3.30;;
2850;SDS011;1433;49.976;8.342;2023-06-14T06:28:58;3.43;;;3.13;;
2850;SDS011;1433;49.976;8.342;2023-06-14T06:31:25;3.13;;;2.90;;
2850;SDS011;1433;49.976;8.342;2023-06-14T06:33:53;6.47;;;3.23;;
2850;SDS011;1433;49.976;8.342;2023-06-14T06:36:20;6.53;;;3.87;;
2850;SDS011;1433;49.976;8.342;2023-06-14T06:38:47;7.00;;;4.57;;
2850;SDS011;1433;49.976;8.342;2023-06-14T06:41:19;4.73;;;3.37;;
2850;SDS011;1433;49.976;8.342;2023-06-14T06:43:44;3.43;;;3.13;;
2850;SDS011;1433;49.976;8.342;2023-06-14T06:46:13;7.03;;;3.60;;
2850;SDS011;1433;49.976;8.342;2023-06-14T06:48:40;3.67;;;3.30;;
2850;SDS011;1433;49.976;8.342;2023-06-14T06:51:09;3.13;;;2.83;;
2850;SDS011;1433;49.976;8.342;2023-06-14T06:53:35;4.50;;;3.10;;
2850;SDS011;1433;49.976;8.342;2023-06-14T06:56:06;4.13;;;2.90;;
2850;SDS011;1433;49.976;8.342;2023-06-14T06:58:35;3.07;;;2.73;;
2850;SDS011;1433;49.976;8.342;2023-06-14T07:01:01;2.77;;;2.37;;
2850;SDS011;1433;49.976;8.342;2023-06-14T07:03:28;3.27;;;2.97;;
2850;SDS011;1433;49.976;8.342;2023-06-14T07:05:54;3.40;;;3.10;;
2850;SDS011;1433;49.976;8.342;2023-06-14T07:08:21;7.57;;;4.07;;
2850;SDS011;1433;49.976;8.342;2023-06-14T07:10:47;3.83;;;2.40;;
2850;SDS011;1433;49.976;8.342;2023-06-14T07:13:13;5.00;;;2.90;;
2850;SDS011;1433;49.976;8.342;2023-06-14T07:15:39;4.33;;;3.50;;
2850;SDS011;1433;49.976;8.342;2023-06-14T07:18:06;3.50;;;3.20;;
2850;SDS011;1433;49.976;8.342;2023-06-14T07:20:32;2.93;;;2.73;;
2850;SDS011;1433;49.976;8.342;2023-06-14T07:22:58;3.73;;;3.13;;
2850;SDS011;1433;49.976;8.342;2023-06-14T07:25:24;3.50;;;2.87;;
2850;SDS011;1433;49.976;8.342;2023-06-14T07:27:54;5.90;;;3.47;;
2850;SDS011;1433;49.976;8.342;2023-06-14T07:30:20;5.70;;;5.07;;
2850;SDS011;1433;49.976;8.342;2023-06-14T07:32:46;4.77;;;3.00;;
2850;SDS011;1433;49.976;8.342;2023-06-14T07:35:13;4.03;;;2.80;;
2850;SDS011;1433;49.976;8.342;2023-06-14T07:37:39;3.40;;;3.10;;
2850;SDS011;1433;49.976;8.342;2023-06-14T07:40:09;6.50;;;2.80;;
2850;SDS011;1433;49.976;8.342;2023-06-14T07:42:41;3.40;;;3.10;;
2850;SDS011;1433;49.976;8.342;2023-06-14T07:45:08;2.60;;;2.40;;
2850;SDS011;1433;49.976;8.342;2023-06-14T07:47:34;2.60;;;2.40;;
2850;SDS011;1433;49.976;8.342;2023-06-14T07:50:01;3.70;;;2.47;;
2850;SDS011;1433;49.976;8.342;2023-06-14T07:52:31;2.50;;;2.30;;
2850;SDS011;1433;49.976;8.342;2023-06-14T07:54:57;2.50;;;2.30;;
2850;SDS011;1433;49.976;8.342;2023-06-14T07:57:24;2.70;;;2.50;;
2850;SDS011;1433;49.976;8.342;2023-06-14T07:59:50;2.50;;;2.30;;
2850;SDS011;1433;49.976;8.342;2023-06-14T08:02:17;2.47;;;2.27;;
2850;SDS011;1433;49.976;8.342;2023-06-14T08:04:43;2.40;;;2.20;;
2850;SDS011;1433;49.976;8.342;2023-06-14T08:07:09;2.63;;;2.37;;
2850;SDS011;1433;49.976;8.342;2023-06-14T08:09:36;3.80;;;2.30;;
2850;SDS011;1433;49.976;8.342;2023-06-14T08:12:04;2.67;;;2.30;;
2850;SDS011;1433;49.976;8.342;2023-06-14T08:14:33;3.47;;;3.17;;
2850;SDS011;1433;49.976;8.342;2023-06-14T08:17:00;2.47;;;2.27;;
2850;SDS011;1433;49.976;8.342;2023-06-14T08:19:28;2.00;;;1.80;;
2850;SDS011;1433;49.976;8.342;2023-06-14T08:21:55;3.43;;;2.70;;
2850;SDS011;1433;49.976;8.342;2023-06-14T08:24:22;3.23;;;2.17;;
2850;SDS011;1433;49.976;8.342;2023-06-14T08:26:52;1.87;;;1.77;;
2850;SDS011;1433;49.976;8.342;2023-06-14T08:29:27;2.80;;;2.43;;
2850;SDS011;1433;49.976;8.342;2023-06-14T08:31:57;2.00;;;1.90;;
2850;SDS011;1433;49.976;8.342;2023-06-14T08:34:23;2.47;;;2.23;;
2850;SDS011;1433;49.976;8.342;2023-06-14T08:36:51;2.33;;;2.20;;
2850;SDS011;1433;49.976;8.342;2023-06-14T08:39:18;2.07;;;1.87;;
2850;SDS011;1433;49.976;8.342;2023-06-14T08:41:45;3.17;;;2.50;;
2850;SDS011;1433;49.976;8.342;2023-06-14T08:44:13;1.93;;;1.70;;
2850;SDS011;1433;49.976;8.342;2023-06-14T08:46:39;2.47;;;1.97;;
2850;SDS011;1433;49.976;8.342;2023-06-14T08:49:07;2.10;;;1.90;;
2850;SDS011;1433;49.976;8.342;2023-06-14T08:51:36;3.00;;;2.10;;
2850;SDS011;1433;49.976;8.342;2023-06-14T08:54:04;2.23;;;2.03;;
2850;SDS011;1433;49.976;8.342;2023-06-14T08:56:31;3.57;;;1.73;;
2850;SDS011;1433;49.976;8.342;2023-06-14T08:58:59;2.03;;;1.70;;
2850;SDS011;1433;49.976;8.342;2023-06-14T09:01:28;1.70;;;1.60;;
2850;SDS011;1433;49.976;8.342;2023-06-14T09:03:55;2.93;;;1.90;;
2850;SDS011;1433;49.976;8.342;2023-06-14T09:06:22;1.83;;;1.63;;
2850;SDS011;1433;49.976;8.342;2023-06-14T09:08:50;2.00;;;1.67;;
2850;SDS011;1433;49.976;8.342;2023-06-14T09:11:17;1.90;;;1.80;;
2850;SDS011;1433;49.976;8.342;2023-06-14T09:13:45;1.63;;;1.53;;
2850;SDS011;1433;49.976;8.342;2023-06-14T09:16:12;2.03;;;1.70;;
2850;SDS011;1433;49.976;8.342;2023-06-14T09:18:39;2.90;;;2.10;;
2850;SDS011;1433;49.976;8.342;2023-06-14T09:21:10;4.17;;;2.47;;
2850;SDS011;1433;49.976;8.342;2023-06-14T09:23:38;1.77;;;1.60;;
2850;SDS011;1433;49.976;8.342;2023-06-14T09:26:14;1.80;;;1.70;;
2850;SDS011;1433;49.976;8.342;2023-06-14T09:28:50;1.60;;;1.50;;
2850;SDS011;1433;49.976;8.342;2023-06-14T09:31:15;1.87;;;1.77;;
2850;SDS011;1433;49.976;8.342;2023-06-14T09:33:48;1.70;;;1.60;;
2850;SDS011;1433;49.976;8.342;2023-06-14T09:36:27;2.03;;;1.93;;
2850;SDS011;1433;49.976;8.342;2023-06-14T09:39:05;1.70;;;1.60;;
2850;SDS011;1433;49.976;8.342;2023-06-14T09:41:37;1.97;;;1.87;;
2850;SDS011;1433;49.976;8.342;2023-06-14T09:44:07;1.53;;;1.43;;
2850;SDS011;1433;49.976;8.342;2023-06-14T09:46:49;1.90;;;1.80;;
2850;SDS011;1433;49.976;8.342;2023-06-14T09:49:23;1.80;;;1.70;;
2850;SDS011;1433;49.976;8.342;2023-06-14T09:51:53;1.70;;;1.60;;
2850;SDS011;1433;49.976;8.342;2023-06-14T09:54:36;1.90;;;1.80;;
2850;SDS011;1433;49.976;8.342;2023-06-14T09:57:03;2.10;;;1.90;;
2850;SDS011;1433;49.976;8.342;2023-06-14T09:59:32;2.03;;;1.70;;
2850;SDS011;1433;49.976;8.342;2023-06-14T10:01:59;6.33;;;1.67;;
2850;SDS011;1433;49.976;8.342;2023-06-14T10:04:34;2.90;;;2.70;;
2850;SDS011;1433;49.976;8.342;2023-06-14T10:07:19;1.67;;;1.57;;
2850;SDS011;1433;49.976;8.342;2023-06-14T10:09:53;1.73;;;1.50;;
2850;SDS011;1433;49.976;8.342;2023-06-14T10:12:31;1.70;;;1.60;;
2850;SDS011;1433;49.976;8.342;2023-06-14T10:15:02;1.60;;;1.50;;
2850;SDS011;1433;49.976;8.342;2023-06-14T10:17:40;1.70;;;1.57;;
2850;SDS011;1433;49.976;8.342;2023-06-14T10:23:18;2.13;;;1.93;;
2850;SDS011;1433;49.976;8.342;2023-06-14T10:25:55;2.60;;;1.83;;
2850;SDS011;1433;49.976;8.342;2023-06-14T10:28:22;3.57;;;1.90;;
2850;SDS011;1433;49.976;8.342;2023-06-14T10:31:09;1.73;;;1.60;;
2850;SDS011;1433;49.976;8.342;2023-06-14T10:33:49;1.60;;;1.50;;
2850;SDS011;1433;49.976;8.342;2023-06-14T10:36:25;4.67;;;1.47;;
2850;SDS011;1433;49.976;8.342;2023-06-14T10:41:50;2.70;;;2.27;;
2850;SDS011;1433;49.976;8.342;2023-06-14T10:46:55;2.03;;;1.83;;
2850;SDS011;1433;49.976;8.342;2023-06-14T10:52:12;2.20;;;2.10;;
2850;SDS011;1433;49.976;8.342;2023-06-14T10:54:55;1.97;;;1.87;;
2850;SDS011;1433;49.976;8.342;2023-06-14T10:57:25;2.47;;;2.07;;
2850;SDS011;1433;49.976;8.342;2023-06-14T10:59:51;1.80;;;1.47;;
2850;SDS011;1433;49.976;8.342;2023-06-14T11:02:36;2.40;;;2.20;;
2850;SDS011;1433;49.976;8.342;2023-06-14T11:04:57;1.63;;;1.53;;
2850;SDS011;1433;49.976;8.342;2023-06-14T11:12:38;1.70;;;1.60;;
2850;SDS011;1433;49.976;8.342;2023-06-14T11:15:06;3.40;;;1.70;;
2850;SDS011;1433;49.976;8.342;2023-06-14T11:17:32;1.60;;;1.50;;
2850;SDS011;1433;49.976;8.342;2023-06-14T11:20:12;1.60;;;1.50;;
2850;SDS011;1433;49.976;8.342;2023-06-14T11:22:45;1.90;;;1.80;;
2850;SDS011;1433;49.976;8.342;2023-06-14T11:25:11;1.67;;;1.40;;
2850;SDS011;1433;49.976;8.342;2023-06-14T11:27:38;1.33;;;1.23;;
2850;SDS011;1433;49.976;8.342;2023-06-14T11:30:06;1.70;;;1.60;;
2850;SDS011;1433;49.976;8.342;2023-06-14T11:32:35;2.43;;;1.90;;
2850;SDS011;1433;49.976;8.342;2023-06-14T11:35:05;2.33;;;1.70;;
2850;SDS011;1433;49.976;8.342;2023-06-14T11:37:32;2.10;;;1.90;;
2850;SDS011;1433;49.976;8.342;2023-06-14T11:39:59;1.70;;;1.60;;
2850;SDS011;1433;49.976;8.342;2023-06-14T11:42:29;1.50;;;1.40;;
2850;SDS011;1433;49.976;8.342;2023-06-14T11:44:55;2.33;;;1.70;;
2850;SDS011;1433;49.976;8.342;2023-06-14T11:47:22;2.27;;;2.07;;
2850;SDS011;1433;49.976;8.342;2023-06-14T11:49:48;2.73;;;1.70;;
2850;SDS011;1433;49.976;8.342;2023-06-14T11:52:16;1.63;;;1.53;;
2850;SDS011;1433;49.976;8.342;2023-06-14T11:54:42;2.20;;;2.10;;
2850;SDS011;1433;49.976;8.342;2023-06-14T11:57:09;1.63;;;1.53;;
2850;SDS011;1433;49.976;8.342;2023-06-14T11:59:39;2.03;;;1.83;;
2850;SDS011;1433;49.976;8.342;2023-06-14T12:02:06;2.10;;;1.90;;
2850;SDS011;1433;49.976;8.342;2023-06-14T12:04:34;1.73;;;1.63;;
2850;SDS011;1433;49.976;8.342;2023-06-14T12:07:13;2.23;;;2.03;;
2850;SDS011;1433;49.976;8.342;2023-06-14T12:09:41;2.20;;;2.10;;
2850;SDS011;1433;49.976;8.342;2023-06-14T12:12:12;1.80;;;1.60;;
2850;SDS011;1433;49.976;8.342;2023-06-14T12:14:40;2.50;;;2.40;;
2850;SDS011;1433;49.976;8.342;2023-06-14T12:17:07;2.70;;;2.13;;
2850;SDS011;1433;49.976;8.342;2023-06-14T12:19:41;1.77;;;1.67;;
2850;SDS011;1433;49.976;8.342;2023-06-14T12:22:12;2.13;;;1.80;;
2850;SDS011;1433;49.976;8.342;2023-06-14T12:24:42;2.93;;;2.30;;
2850;SDS011;1433;49.976;8.342;2023-06-14T12:27:11;2.70;;;2.50;;
2850;SDS011;1433;49.976;8.342;2023-06-14T12:29:41;2.53;;;2.37;;
2850;SDS011;1433;49.976;8.342;2023-06-14T12:32:11;2.97;;;2.23;;
2850;SDS011;1433;49.976;8.342;2023-06-14T12:34:38;2.10;;;2.00;;
2850;SDS011;1433;49.976;8.342;2023-06-14T12:37:04;2.37;;;2.27;;
2850;SDS011;1433;49.976;8.342;2023-06-14T12:39:30;2.17;;;1.97;;
2850;SDS011;1433;49.976;8.342;2023-06-14T12:41:59;2.03;;;1.83;;
2850;SDS011;1433;49.976;8.342;2023-06-14T12:44:25;2.27;;;1.97;;
2850;SDS011;1433;49.976;8.342;2023-06-14T12:46:52;2.60;;;1.87;;
2850;SDS011;1433;49.976;8.342;2023-06-14T12:49:20;2.00;;;1.87;;
2850;SDS011;1433;49.976;8.342;2023-06-14T12:51:46;2.67;;;1.93;;
2850;SDS011;1433;49.976;8.342;2023-06-14T12:54:12;2.07;;;1.70;;
2850;SDS011;1433;49.976;8.342;2023-06-14T12:56:40;2.27;;;1.90;;
2850;SDS011;1433;49.976;8.342;2023-06-14T12:59:08;2.93;;;2.03;;
2850;SDS011;1433;49.976;8.342;2023-06-14T13:01:35;2.03;;;1.83;;
2850;SDS011;1433;49.976;8.342;2023-06-14T13:04:01;3.00;;;2.23;;
2850;SDS011;1433;49.976;8.342;2023-06-14T13:06:27;1.60;;;1.50;;
2850;SDS011;1433;49.976;8.342;2023-06-14T13:08:55;2.23;;;2.03;;
2850;SDS011;1433;49.976;8.342;2023-06-14T13:11:23;2.50;;;2.00;;
2850;SDS011;1433;49.976;8.342;2023-06-14T13:13:49;2.50;;;2.30;;
2850;SDS011;1433;49.976;8.342;2023-06-14T13:16:15;2.23;;;1.83;;
2850;SDS011;1433;49.976;8.342;2023-06-14T13:18:42;1.50;;;1.40;;
2850;SDS011;1433;49.976;8.342;2023-06-14T13:21:08;1.80;;;1.70;;
2850;SDS011;1433;49.976;8.342;2023-06-14T13:23:34;2.20;;;1.90;;
2850;SDS011;1433;49.976;8.342;2023-06-14T13:26:00;2.57;;;2.17;;
2850;SDS011;1433;49.976;8.342;2023-06-14T13:28:27;2.13;;;1.93;;
2850;SDS011;1433;49.976;8.342;2023-06-14T13:30:53;2.53;;;2.00;;
2850;SDS011;1433;49.976;8.342;2023-06-14T13:33:21;1.83;;;1.73;;
2850;SDS011;1433;49.976;8.342;2023-06-14T13:35:48;2.50;;;2.30;;
2850;SDS011;1433;49.976;8.342;2023-06-14T13:38:14;2.70;;;2.50;;
2850;SDS011;1433;49.976;8.342;2023-06-14T13:40:41;2.33;;;2.13;;
2850;SDS011;1433;49.976;8.342;2023-06-14T13:43:07;1.93;;;1.83;;
2850;SDS011;1433;49.976;8.342;2023-06-14T13:45:37;2.10;;;1.90;;
2850;SDS011;1433;49.976;8.342;2023-06-14T13:48:01;5.13;;;1.87;;
2850;SDS011;1433;49.976;8.342;2023-06-14T13:50:28;1.83;;;1.70;;
2850;SDS011;1433;49.976;8.342;2023-06-14T13:52:54;2.13;;;1.37;;
2850;SDS011;1433;49.976;8.342;2023-06-14T13:55:20;3.27;;;1.87;;
2850;SDS011;1433;49.976;8.342;2023-06-14T13:57:47;2.27;;;2.07;;
2850;SDS011;1433;49.976;8.342;2023-06-14T14:00:14;4.10;;;2.57;;
2850;SDS011;1433;49.976;8.342;2023-06-14T14:02:42;2.50;;;2.13;;
2850;SDS011;1433;49.976;8.342;2023-06-14T14:05:08;2.90;;;2.60;;
2850;SDS011;1433;49.976;8.342;2023-06-14T14:07:34;2.23;;;1.97;;
2850;SDS011;1433;49.976;8.342;2023-06-14T14:10:02;1.90;;;1.80;;
2850;SDS011;1433;49.976;8.342;2023-06-14T14:12:28;2.60;;;2.40;;
2850;SDS011;1433;49.976;8.342;2023-06-14T14:14:54;4.60;;;2.40;;
2850;SDS011;1433;49.976;8.342;2023-06-14T14:17:21;2.43;;;2.27;;
2850;SDS011;1433;49.976;8.342;2023-06-14T14:19:48;2.70;;;2.20;;
2850;SDS011;1433;49.976;8.342;2023-06-14T14:22:15;2.93;;;2.70;;
2850;SDS011;1433;49.976;8.342;2023-06-14T14:24:41;3.17;;;2.83;;
2850;SDS011;1433;49.976;8.342;2023-06-14T14:27:07;3.03;;;2.77;;
2850;SDS011;1433;49.976;8.342;2023-06-14T14:29:33;2.20;;;2.00;;
2850;SDS011;1433;49.976;8.342;2023-06-14T14:32:01;4.47;;;2.40;;
2850;SDS011;1433;49.976;8.342;2023-06-14T14:34:28;2.50;;;2.30;;
2850;SDS011;1433;49.976;8.342;2023-06-14T14:36:54;2.03;;;1.60;;
2850;SDS011;1433;49.976;8.342;2023-06-14T14:39:20;2.00;;;1.83;;
2850;SDS011;1433;49.976;8.342;2023-06-14T14:41:46;2.27;;;2.07;;
2850;SDS011;1433;49.976;8.342;2023-06-14T14:44:12;2.13;;;2.03;;
2850;SDS011;1433;49.976;8.342;2023-06-14T14:46:38;1.83;;;1.73;;
2850;SDS011;1433;49.976;8.342;2023-06-14T14:49:05;2.13;;;1.93;;
2850;SDS011;1433;49.976;8.342;2023-06-14T14:51:31;2.20;;;2.10;;
2850;SDS011;1433;49.976;8.342;2023-06-14T14:53:57;3.43;;;3.00;;
2850;SDS011;1433;49.976;8.342;2023-06-14T14:56:23;2.23;;;2.10;;
2850;SDS011;1433;49.976;8.342;2023-06-14T14:58:50;2.13;;;1.93;;
2850;SDS011;1433;49.976;8.342;2023-06-14T15:01:16;1.93;;;1.73;;
2850;SDS011;1433;49.976;8.342;2023-06-14T15:03:42;2.53;;;1.80;;
2850;SDS011;1433;49.976;8.342;2023-06-14T15:06:09;2.20;;;1.97;;
2850;SDS011;1433;49.976;8.342;2023-06-14T15:08:35;2.77;;;2.57;;
2850;SDS011;1433;49.976;8.342;2023-06-14T15:11:01;2.00;;;1.80;;
2850;SDS011;1433;49.976;8.342;2023-06-14T15:13:28;2.37;;;1.83;;
2850;SDS011;1433;49.976;8.342;2023-06-14T15:15:55;1.67;;;1.57;;
2850;SDS011;1433;49.976;8.342;2023-06-14T15:18:21;2.50;;;1.60;;
2850;SDS011;1433;49.976;8.342;2023-06-14T15:20:48;1.80;;;1.70;;
2850;SDS011;1433;49.976;8.342;2023-06-14T15:23:14;2.00;;;1.70;;
2850;SDS011;1433;49.976;8.342;2023-06-14T15:25:43;2.30;;;2.10;;
2850;SDS011;1433;49.976;8.342;2023-06-14T15:28:09;2.03;;;1.93;;
2850;SDS011;1433;49.976;8.342;2023-06-14T15:30:35;1.77;;;1.67;;
2850;SDS011;1433;49.976;8.342;2023-06-14T15:33:01;2.03;;;1.70;;
2850;SDS011;1433;49.976;8.342;2023-06-14T15:35:28;1.97;;;1.87;;
2850;SDS011;1433;49.976;8.342;2023-06-14T15:37:54;2.00;;;1.90;;
2850;SDS011;1433;49.976;8.342;2023-06-14T15:40:20;2.03;;;1.93;;
2850;SDS011;1433;49.976;8.342;2023-06-14T15:42:47;4.57;;;4.27;;
2850;SDS011;1433;49.976;8.342;2023-06-14T15:45:13;3.33;;;2.27;;
2850;SDS011;1433;49.976;8.342;2023-06-14T15:47:39;3.27;;;1.87;;
2850;SDS011;1433;49.976;8.342;2023-06-14T15:50:06;1.83;;;1.73;;
2850;SDS011;1433;49.976;8.342;2023-06-14T15:52:35;5.93;;;2.10;;
2850;SDS011;1433;49.976;8.342;2023-06-14T15:55:01;2.40;;;2.20;;